sensor_id;sensor_type;location;lat;lon;timestamp;P1;durP1;ratioP1;P2;durP2;ratioP2
77158;SDS011;66129;45.890;13.714;2023-12-28T00:01:47;78.18;;;42.63;;
77158;SDS011;66129;45.890;13.714;2023-12-28T00:04:12;72.47;;;41.78;;
77158;SDS011;66129;45.890;13.714;2023-12-28T00:06:38;79.55;;;41.05;;
77158;SDS011;66129;45.890;13.714;2023-12-28T00:09:03;87.97;;;43.75;;
77158;SDS011;66129;45.890;13.714;2023-12-28T00:11:29;82.63;;;43.72;;
77158;SDS011;66129;45.890;13.714;2023-12-28T00:13:54;99.70;;;46.80;;
77158;SDS011;66129;45.890;13.714;2023-12-28T00:16:20;112.88;;;53.88;;
77158;SDS011;66129;45.890;13.714;2023-12-28T00:18:45;103.75;;;49.83;;
77158;SDS011;66129;45.890;13.714;2023-12-28T00:21:11;112.38;;;54.25;;
77158;SDS011;66129;45.890;13.714;2023-12-28T00:23:36;101.85;;;48.97;;
77158;SDS011;66129;45.890;13.714;2023-12-28T00:26:01;82.60;;;44.53;;
77158;SDS011;66129;45.890;13.714;2023-12-28T00:28:27;85.15;;;47.13;;
77158;SDS011;66129;45.890;13.714;2023-12-28T00:30:53;74.93;;;42.67;;
77158;SDS011;66129;45.890;13.714;2023-12-28T00:33:18;86.28;;;39.33;;
77158;SDS011;66129;45.890;13.714;2023-12-28T00:35:44;80.20;;;41.97;;
77158;SDS011;66129;45.890;13.714;2023-12-28T00:38:09;77.82;;;39.92;;
77158;SDS011;66129;45.890;13.714;2023-12-28T00:40:35;85.50;;;44.38;;
77158;SDS011;66129;45.890;13.714;2023-12-28T00:43:00;78.43;;;38.80;;
77158;SDS011;66129;45.890;13.714;2023-12-28T00:45:25;70.07;;;38.60;;
77158;SDS011;66129;45.890;13.714;2023-12-28T00:47:51;74.07;;;41.28;;
77158;SDS011;66129;45.890;13.714;2023-12-28T00:50:17;78.55;;;40.35;;
77158;SDS011;66129;45.890;13.714;2023-12-28T00:52:42;84.65;;;42.75;;
77158;SDS011;66129;45.890;13.714;2023-12-28T00:55:08;74.95;;;40.70;;
77158;SDS011;66129;45.890;13.714;2023-12-28T00:57:35;75.70;;;41.70;;
77158;SDS011;66129;45.890;13.714;2023-12-28T01:00:00;79.57;;;40.30;;
77158;SDS011;66129;45.890;13.714;2023-12-28T01:02:26;79.43;;;43.42;;
77158;SDS011;66129;45.890;13.714;2023-12-28T01:04:52;80.90;;;44.20;;
77158;SDS011;66129;45.890;13.714;2023-12-28T01:07:18;76.95;;;41.55;;
77158;SDS011;66129;45.890;13.714;2023-12-28T01:09:43;72.40;;;40.40;;
77158;SDS011;66129;45.890;13.714;2023-12-28T01:12:09;69.85;;;38.33;;
77158;SDS011;66129;45.890;13.714;2023-12-28T01:14:34;73.22;;;40.47;;
77158;SDS011;66129;45.890;13.714;2023-12-28T01:17:01;71.15;;;40.05;;
77158;SDS011;66129;45.890;13.714;2023-12-28T01:19:26;82.15;;;42.88;;
77158;SDS011;66129;45.890;13.714;2023-12-28T01:21:52;73.07;;;42.80;;
77158;SDS011;66129;45.890;13.714;2023-12-28T01:24:17;80.68;;;43.50;;
77158;SDS011;66129;45.890;13.714;2023-12-28T01:26:43;80.25;;;41.85;;
77158;SDS011;66129;45.890;13.714;2023-12-28T01:29:09;88.85;;;44.63;;
77158;SDS011;66129;45.890;13.714;2023-12-28T01:31:35;84.63;;;43.55;;
77158;SDS011;66129;45.890;13.714;2023-12-28T01:34:01;85.30;;;44.78;;
77158;SDS011;66129;45.890;13.714;2023-12-28T01:36:26;86.88;;;43.90;;
77158;SDS011;66129;45.890;13.714;2023-12-28T01:38:54;78.93;;;42.50;;
77158;SDS011;66129;45.890;13.714;2023-12-28T01:41:20;82.57;;;44.72;;
77158;SDS011;66129;45.890;13.714;2023-12-28T01:43:45;91.38;;;46.65;;
77158;SDS011;66129;45.890;13.714;2023-12-28T01:46:17;86.95;;;44.83;;
77158;SDS011;66129;45.890;13.714;2023-12-28T01:48:44;83.13;;;43.30;;
77158;SDS011;66129;45.890;13.714;2023-12-28T01:51:13;74.10;;;39.95;;
77158;SDS011;66129;45.890;13.714;2023-12-28T01:53:40;73.68;;;40.13;;
77158;SDS011;66129;45.890;13.714;2023-12-28T01:56:06;71.18;;;41.08;;
77158;SDS011;66129;45.890;13.714;2023-12-28T01:58:33;71.03;;;39.92;;
77158;SDS011;66129;45.890;13.714;2023-12-28T02:01:00;77.80;;;41.65;;
77158;SDS011;66129;45.890;13.714;2023-12-28T02:03:26;81.22;;;42.97;;
77158;SDS011;66129;45.890;13.714;2023-12-28T02:05:52;93.63;;;47.47;;
77158;SDS011;66129;45.890;13.714;2023-12-28T02:08:18;74.80;;;43.38;;
77158;SDS011;66129;45.890;13.714;2023-12-28T02:10:44;87.10;;;44.22;;
77158;SDS011;66129;45.890;13.714;2023-12-28T02:13:09;77.80;;;42.72;;
77158;SDS011;66129;45.890;13.714;2023-12-28T02:15:35;80.45;;;43.30;;
77158;SDS011;66129;45.890;13.714;2023-12-28T02:18:02;76.25;;;41.97;;
77158;SDS011;66129;45.890;13.714;2023-12-28T02:20:34;79.20;;;41.00;;
77158;SDS011;66129;45.890;13.714;2023-12-28T02:23:00;64.00;;;34.88;;
77158;SDS011;66129;45.890;13.714;2023-12-28T02:25:26;72.20;;;37.55;;
77158;SDS011;66129;45.890;13.714;2023-12-28T02:27:51;67.82;;;37.72;;
77158;SDS011;66129;45.890;13.714;2023-12-28T02:30:18;88.43;;;40.50;;
77158;SDS011;66129;45.890;13.714;2023-12-28T02:38:10;72.18;;;36.70;;
77158;SDS011;66129;45.890;13.714;2023-12-28T02:40:37;71.78;;;37.13;;
77158;SDS011;66129;45.890;13.714;2023-12-28T02:43:04;78.50;;;40.22;;
77158;SDS011;66129;45.890;13.714;2023-12-28T02:45:31;70.80;;;38.17;;
77158;SDS011;66129;45.890;13.714;2023-12-28T02:47:56;68.68;;;35.72;;
77158;SDS011;66129;45.890;13.714;2023-12-28T02:50:22;76.22;;;38.65;;
77158;SDS011;66129;45.890;13.714;2023-12-28T02:52:47;74.57;;;37.25;;
77158;SDS011;66129;45.890;13.714;2023-12-28T02:55:13;73.72;;;35.58;;
77158;SDS011;66129;45.890;13.714;2023-12-28T02:57:38;65.22;;;36.17;;
77158;SDS011;66129;45.890;13.714;2023-12-28T03:00:04;71.22;;;36.95;;
77158;SDS011;66129;45.890;13.714;2023-12-28T03:02:33;68.97;;;37.72;;
77158;SDS011;66129;45.890;13.714;2023-12-28T03:05:00;62.35;;;34.88;;
77158;SDS011;66129;45.890;13.714;2023-12-28T03:07:26;69.90;;;36.90;;
77158;SDS011;66129;45.890;13.714;2023-12-28T03:09:51;57.85;;;32.92;;
77158;SDS011;66129;45.890;13.714;2023-12-28T03:12:16;61.72;;;33.45;;
77158;SDS011;66129;45.890;13.714;2023-12-28T03:14:42;54.58;;;32.55;;
77158;SDS011;66129;45.890;13.714;2023-12-28T03:17:08;64.43;;;34.60;;
77158;SDS011;66129;45.890;13.714;2023-12-28T03:19:35;62.33;;;33.42;;
77158;SDS011;66129;45.890;13.714;2023-12-28T03:22:01;67.05;;;33.30;;
77158;SDS011;66129;45.890;13.714;2023-12-28T03:24:26;69.10;;;35.53;;
77158;SDS011;66129;45.890;13.714;2023-12-28T03:26:52;69.53;;;36.00;;
77158;SDS011;66129;45.890;13.714;2023-12-28T03:29:17;74.75;;;36.17;;
77158;SDS011;66129;45.890;13.714;2023-12-28T03:31:43;66.70;;;33.45;;
77158;SDS011;66129;45.890;13.714;2023-12-28T03:34:08;63.10;;;33.92;;
77158;SDS011;66129;45.890;13.714;2023-12-28T03:36:34;62.38;;;32.92;;
77158;SDS011;66129;45.890;13.714;2023-12-28T03:38:59;65.68;;;34.33;;
77158;SDS011;66129;45.890;13.714;2023-12-28T03:41:25;69.63;;;34.75;;
77158;SDS011;66129;45.890;13.714;2023-12-28T03:43:50;62.38;;;33.30;;
77158;SDS011;66129;45.890;13.714;2023-12-28T03:46:16;62.03;;;34.40;;
77158;SDS011;66129;45.890;13.714;2023-12-28T03:48:41;65.50;;;33.85;;
77158;SDS011;66129;45.890;13.714;2023-12-28T03:51:07;63.72;;;33.65;;
77158;SDS011;66129;45.890;13.714;2023-12-28T03:53:32;62.25;;;32.72;;
77158;SDS011;66129;45.890;13.714;2023-12-28T03:55:58;61.85;;;31.80;;
77158;SDS011;66129;45.890;13.714;2023-12-28T03:58:24;56.95;;;32.10;;
77158;SDS011;66129;45.890;13.714;2023-12-28T04:00:49;65.07;;;33.03;;
77158;SDS011;66129;45.890;13.714;2023-12-28T04:03:15;63.97;;;33.08;;
77158;SDS011;66129;45.890;13.714;2023-12-28T04:05:40;58.55;;;34.75;;
77158;SDS011;66129;45.890;13.714;2023-12-28T04:08:06;68.32;;;34.72;;
77158;SDS011;66129;45.890;13.714;2023-12-28T04:10:33;64.30;;;33.78;;
77158;SDS011;66129;45.890;13.714;2023-12-28T04:12:58;60.88;;;33.15;;
77158;SDS011;66129;45.890;13.714;2023-12-28T04:15:27;53.72;;;31.73;;
77158;SDS011;66129;45.890;13.714;2023-12-28T04:17:53;63.50;;;32.47;;
77158;SDS011;66129;45.890;13.714;2023-12-28T04:20:18;63.15;;;34.15;;
77158;SDS011;66129;45.890;13.714;2023-12-28T04:22:44;56.05;;;34.55;;
77158;SDS011;66129;45.890;13.714;2023-12-28T04:25:10;69.35;;;34.75;;
77158;SDS011;66129;45.890;13.714;2023-12-28T04:27:36;67.18;;;35.72;;
77158;SDS011;66129;45.890;13.714;2023-12-28T04:30:01;62.42;;;34.45;;
77158;SDS011;66129;45.890;13.714;2023-12-28T04:32:27;60.15;;;32.75;;
77158;SDS011;66129;45.890;13.714;2023-12-28T04:34:52;60.58;;;32.17;;
77158;SDS011;66129;45.890;13.714;2023-12-28T04:37:20;60.22;;;30.80;;
77158;SDS011;66129;45.890;13.714;2023-12-28T04:39:46;52.28;;;31.05;;
77158;SDS011;66129;45.890;13.714;2023-12-28T04:42:11;54.63;;;30.35;;
77158;SDS011;66129;45.890;13.714;2023-12-28T04:44:39;57.63;;;30.25;;
77158;SDS011;66129;45.890;13.714;2023-12-28T04:47:05;64.63;;;32.35;;
77158;SDS011;66129;45.890;13.714;2023-12-28T04:49:31;60.58;;;32.47;;
77158;SDS011;66129;45.890;13.714;2023-12-28T04:51:57;61.33;;;33.63;;
77158;SDS011;66129;45.890;13.714;2023-12-28T04:54:22;66.75;;;34.42;;
77158;SDS011;66129;45.890;13.714;2023-12-28T04:56:48;60.58;;;33.90;;
77158;SDS011;66129;45.890;13.714;2023-12-28T04:59:14;64.55;;;35.22;;
77158;SDS011;66129;45.890;13.714;2023-12-28T05:01:42;71.72;;;35.10;;
77158;SDS011;66129;45.890;13.714;2023-12-28T05:04:08;60.30;;;32.88;;
77158;SDS011;66129;45.890;13.714;2023-12-28T05:06:34;63.83;;;32.28;;
77158;SDS011;66129;45.890;13.714;2023-12-28T05:09:00;67.25;;;34.85;;
77158;SDS011;66129;45.890;13.714;2023-12-28T05:11:26;62.60;;;33.53;;
77158;SDS011;66129;45.890;13.714;2023-12-28T05:13:52;57.15;;;33.38;;
77158;SDS011;66129;45.890;13.714;2023-12-28T05:16:17;56.70;;;33.00;;
77158;SDS011;66129;45.890;13.714;2023-12-28T05:18:43;63.17;;;31.38;;
77158;SDS011;66129;45.890;13.714;2023-12-28T05:21:08;59.17;;;32.22;;
77158;SDS011;66129;45.890;13.714;2023-12-28T05:23:34;66.85;;;34.28;;
77158;SDS011;66129;45.890;13.714;2023-12-28T05:25:59;65.15;;;33.50;;
77158;SDS011;66129;45.890;13.714;2023-12-28T05:28:24;65.97;;;36.58;;
77158;SDS011;66129;45.890;13.714;2023-12-28T05:30:50;68.75;;;38.15;;
77158;SDS011;66129;45.890;13.714;2023-12-28T05:33:16;67.05;;;35.75;;
77158;SDS011;66129;45.890;13.714;2023-12-28T05:35:41;62.67;;;33.38;;
77158;SDS011;66129;45.890;13.714;2023-12-28T05:38:07;57.22;;;31.55;;
77158;SDS011;66129;45.890;13.714;2023-12-28T05:40:32;63.72;;;33.10;;
77158;SDS011;66129;45.890;13.714;2023-12-28T05:42:57;59.78;;;34.30;;
77158;SDS011;66129;45.890;13.714;2023-12-28T05:45:23;55.67;;;32.30;;
77158;SDS011;66129;45.890;13.714;2023-12-28T05:47:48;64.03;;;34.20;;
77158;SDS011;66129;45.890;13.714;2023-12-28T05:50:15;58.90;;;33.78;;
77158;SDS011;66129;45.890;13.714;2023-12-28T05:52:40;55.30;;;29.95;;
77158;SDS011;66129;45.890;13.714;2023-12-28T05:55:06;58.83;;;30.80;;
77158;SDS011;66129;45.890;13.714;2023-12-28T05:57:31;68.57;;;34.45;;
77158;SDS011;66129;45.890;13.714;2023-12-28T05:59:57;63.42;;;32.75;;
77158;SDS011;66129;45.890;13.714;2023-12-28T06:02:23;49.42;;;28.40;;
77158;SDS011;66129;45.890;13.714;2023-12-28T06:04:48;61.72;;;31.23;;
77158;SDS011;66129;45.890;13.714;2023-12-28T06:07:14;53.60;;;31.63;;
77158;SDS011;66129;45.890;13.714;2023-12-28T06:09:39;56.67;;;29.90;;
77158;SDS011;66129;45.890;13.714;2023-12-28T06:12:05;70.22;;;33.58;;
77158;SDS011;66129;45.890;13.714;2023-12-28T06:14:31;60.75;;;32.47;;
77158;SDS011;66129;45.890;13.714;2023-12-28T06:16:58;58.22;;;30.08;;
77158;SDS011;66129;45.890;13.714;2023-12-28T06:19:24;50.17;;;28.00;;
77158;SDS011;66129;45.890;13.714;2023-12-28T06:21:50;75.20;;;39.38;;
77158;SDS011;66129;45.890;13.714;2023-12-28T06:24:15;69.05;;;37.03;;
77158;SDS011;66129;45.890;13.714;2023-12-28T06:26:41;82.05;;;40.95;;
77158;SDS011;66129;45.890;13.714;2023-12-28T06:29:08;73.55;;;38.35;;
77158;SDS011;66129;45.890;13.714;2023-12-28T06:31:34;67.72;;;36.35;;
77158;SDS011;66129;45.890;13.714;2023-12-28T06:34:04;72.25;;;36.30;;
77158;SDS011;66129;45.890;13.714;2023-12-28T06:36:31;62.08;;;34.60;;
77158;SDS011;66129;45.890;13.714;2023-12-28T06:38:57;63.92;;;34.67;;
77158;SDS011;66129;45.890;13.714;2023-12-28T06:41:23;58.97;;;31.25;;
77158;SDS011;66129;45.890;13.714;2023-12-28T06:43:49;58.15;;;32.30;;
77158;SDS011;66129;45.890;13.714;2023-12-28T06:46:14;77.38;;;38.65;;
77158;SDS011;66129;45.890;13.714;2023-12-28T06:48:40;69.78;;;35.17;;
77158;SDS011;66129;45.890;13.714;2023-12-28T06:51:06;63.05;;;33.58;;
77158;SDS011;66129;45.890;13.714;2023-12-28T06:53:32;57.90;;;32.50;;
77158;SDS011;66129;45.890;13.714;2023-12-28T06:55:57;51.90;;;30.25;;
77158;SDS011;66129;45.890;13.714;2023-12-28T06:58:23;48.83;;;29.45;;
77158;SDS011;66129;45.890;13.714;2023-12-28T07:00:48;55.17;;;30.73;;
77158;SDS011;66129;45.890;13.714;2023-12-28T07:03:14;50.30;;;27.40;;
77158;SDS011;66129;45.890;13.714;2023-12-28T07:05:40;53.10;;;27.08;;
77158;SDS011;66129;45.890;13.714;2023-12-28T07:08:05;53.83;;;25.55;;
77158;SDS011;66129;45.890;13.714;2023-12-28T07:10:31;48.88;;;27.10;;
77158;SDS011;66129;45.890;13.714;2023-12-28T07:12:56;51.33;;;27.45;;
77158;SDS011;66129;45.890;13.714;2023-12-28T07:15:22;52.85;;;29.23;;
77158;SDS011;66129;45.890;13.714;2023-12-28T07:17:47;56.70;;;30.38;;
77158;SDS011;66129;45.890;13.714;2023-12-28T07:20:13;52.35;;;28.27;;
77158;SDS011;66129;45.890;13.714;2023-12-28T07:22:38;55.10;;;27.58;;
77158;SDS011;66129;45.890;13.714;2023-12-28T07:25:07;72.32;;;36.67;;
77158;SDS011;66129;45.890;13.714;2023-12-28T07:27:35;65.97;;;32.95;;
77158;SDS011;66129;45.890;13.714;2023-12-28T07:30:02;57.38;;;30.25;;
77158;SDS011;66129;45.890;13.714;2023-12-28T07:32:28;101.65;;;55.00;;
77158;SDS011;66129;45.890;13.714;2023-12-28T07:34:54;66.38;;;37.30;;
77158;SDS011;66129;45.890;13.714;2023-12-28T07:37:20;69.47;;;39.50;;
77158;SDS011;66129;45.890;13.714;2023-12-28T07:39:46;59.05;;;31.45;;
77158;SDS011;66129;45.890;13.714;2023-12-28T07:42:12;52.38;;;29.90;;
77158;SDS011;66129;45.890;13.714;2023-12-28T07:44:38;52.08;;;31.67;;
77158;SDS011;66129;45.890;13.714;2023-12-28T07:47:04;59.25;;;31.17;;
77158;SDS011;66129;45.890;13.714;2023-12-28T07:49:30;57.42;;;30.58;;
77158;SDS011;66129;45.890;13.714;2023-12-28T07:51:56;53.33;;;29.65;;
77158;SDS011;66129;45.890;13.714;2023-12-28T07:54:21;54.63;;;30.33;;
77158;SDS011;66129;45.890;13.714;2023-12-28T07:56:47;58.42;;;32.45;;
77158;SDS011;66129;45.890;13.714;2023-12-28T07:59:12;54.90;;;32.58;;
77158;SDS011;66129;45.890;13.714;2023-12-28T08:01:38;57.35;;;31.38;;
77158;SDS011;66129;45.890;13.714;2023-12-28T08:04:04;63.40;;;35.33;;
77158;SDS011;66129;45.890;13.714;2023-12-28T08:06:29;64.43;;;35.40;;
77158;SDS011;66129;45.890;13.714;2023-12-28T08:09:01;63.47;;;35.03;;
77158;SDS011;66129;45.890;13.714;2023-12-28T08:11:26;77.60;;;40.38;;
77158;SDS011;66129;45.890;13.714;2023-12-28T08:13:52;72.88;;;38.28;;
77158;SDS011;66129;45.890;13.714;2023-12-28T08:16:18;66.03;;;37.58;;
77158;SDS011;66129;45.890;13.714;2023-12-28T08:18:44;66.18;;;37.65;;
77158;SDS011;66129;45.890;13.714;2023-12-28T08:21:09;66.50;;;34.85;;
77158;SDS011;66129;45.890;13.714;2023-12-28T08:23:35;48.88;;;27.23;;
77158;SDS011;66129;45.890;13.714;2023-12-28T08:26:00;49.03;;;29.58;;
77158;SDS011;66129;45.890;13.714;2023-12-28T08:28:26;49.55;;;29.00;;
77158;SDS011;66129;45.890;13.714;2023-12-28T08:30:52;60.42;;;30.23;;
77158;SDS011;66129;45.890;13.714;2023-12-28T08:33:17;55.55;;;31.48;;
77158;SDS011;66129;45.890;13.714;2023-12-28T08:35:43;56.40;;;31.35;;
77158;SDS011;66129;45.890;13.714;2023-12-28T08:38:08;45.80;;;27.10;;
77158;SDS011;66129;45.890;13.714;2023-12-28T08:40:34;48.15;;;25.55;;
77158;SDS011;66129;45.890;13.714;2023-12-28T08:42:59;50.92;;;26.77;;
77158;SDS011;66129;45.890;13.714;2023-12-28T08:45:25;46.10;;;27.38;;
77158;SDS011;66129;45.890;13.714;2023-12-28T08:47:50;53.33;;;27.63;;
77158;SDS011;66129;45.890;13.714;2023-12-28T08:50:16;53.60;;;29.30;;
77158;SDS011;66129;45.890;13.714;2023-12-28T08:52:41;57.63;;;31.40;;
77158;SDS011;66129;45.890;13.714;2023-12-28T08:55:07;49.38;;;28.40;;
77158;SDS011;66129;45.890;13.714;2023-12-28T08:57:33;53.42;;;30.90;;
77158;SDS011;66129;45.890;13.714;2023-12-28T08:59:58;67.18;;;36.65;;
77158;SDS011;66129;45.890;13.714;2023-12-28T09:02:27;66.07;;;33.50;;
77158;SDS011;66129;45.890;13.714;2023-12-28T09:04:53;50.83;;;31.48;;
77158;SDS011;66129;45.890;13.714;2023-12-28T09:07:18;68.65;;;38.38;;
77158;SDS011;66129;45.890;13.714;2023-12-28T09:09:44;54.72;;;29.85;;
77158;SDS011;66129;45.890;13.714;2023-12-28T09:12:10;49.85;;;26.05;;
77158;SDS011;66129;45.890;13.714;2023-12-28T09:14:37;52.45;;;28.75;;
77158;SDS011;66129;45.890;13.714;2023-12-28T09:17:02;51.00;;;29.48;;
77158;SDS011;66129;45.890;13.714;2023-12-28T09:19:28;53.78;;;32.47;;
77158;SDS011;66129;45.890;13.714;2023-12-28T09:21:53;59.00;;;32.42;;
77158;SDS011;66129;45.890;13.714;2023-12-28T09:24:19;55.78;;;30.13;;
77158;SDS011;66129;45.890;13.714;2023-12-28T09:26:44;56.33;;;30.92;;
77158;SDS011;66129;45.890;13.714;2023-12-28T09:29:10;51.53;;;29.92;;
77158;SDS011;66129;45.890;13.714;2023-12-28T09:31:36;56.00;;;30.27;;
77158;SDS011;66129;45.890;13.714;2023-12-28T09:34:02;56.78;;;31.45;;
77158;SDS011;66129;45.890;13.714;2023-12-28T09:36:29;61.70;;;32.80;;
77158;SDS011;66129;45.890;13.714;2023-12-28T09:38:55;56.22;;;32.70;;
77158;SDS011;66129;45.890;13.714;2023-12-28T09:41:21;53.00;;;31.90;;
77158;SDS011;66129;45.890;13.714;2023-12-28T09:46:36;68.43;;;37.90;;
77158;SDS011;66129;45.890;13.714;2023-12-28T09:49:04;55.95;;;31.67;;
77158;SDS011;66129;45.890;13.714;2023-12-28T09:51:29;65.53;;;37.65;;
77158;SDS011;66129;45.890;13.714;2023-12-28T09:53:56;63.08;;;36.88;;
77158;SDS011;66129;45.890;13.714;2023-12-28T09:56:22;63.78;;;35.05;;
77158;SDS011;66129;45.890;13.714;2023-12-28T09:58:48;64.00;;;33.70;;
77158;SDS011;66129;45.890;13.714;2023-12-28T10:01:16;61.60;;;34.38;;
77158;SDS011;66129;45.890;13.714;2023-12-28T10:03:43;68.53;;;39.17;;
77158;SDS011;66129;45.890;13.714;2023-12-28T10:06:08;67.70;;;40.28;;
77158;SDS011;66129;45.890;13.714;2023-12-28T10:08:34;71.63;;;41.58;;
77158;SDS011;66129;45.890;13.714;2023-12-28T10:11:02;66.93;;;39.25;;
77158;SDS011;66129;45.890;13.714;2023-12-28T10:13:28;58.67;;;33.20;;
77158;SDS011;66129;45.890;13.714;2023-12-28T10:15:58;54.15;;;31.73;;
77158;SDS011;66129;45.890;13.714;2023-12-28T10:18:24;56.92;;;30.63;;
77158;SDS011;66129;45.890;13.714;2023-12-28T10:20:50;60.33;;;32.53;;
77158;SDS011;66129;45.890;13.714;2023-12-28T10:23:17;52.35;;;28.58;;
77158;SDS011;66129;45.890;13.714;2023-12-28T10:25:46;51.40;;;28.48;;
77158;SDS011;66129;45.890;13.714;2023-12-28T10:28:13;49.38;;;28.73;;
77158;SDS011;66129;45.890;13.714;2023-12-28T10:30:39;54.53;;;28.75;;
77158;SDS011;66129;45.890;13.714;2023-12-28T10:33:07;57.75;;;31.10;;
77158;SDS011;66129;45.890;13.714;2023-12-28T10:35:33;52.83;;;28.85;;
77158;SDS011;66129;45.890;13.714;2023-12-28T10:38:01;45.88;;;26.92;;
77158;SDS011;66129;45.890;13.714;2023-12-28T10:40:29;44.30;;;26.40;;
77158;SDS011;66129;45.890;13.714;2023-12-28T10:42:57;48.67;;;27.67;;
77158;SDS011;66129;45.890;13.714;2023-12-28T10:45:27;43.63;;;27.00;;
77158;SDS011;66129;45.890;13.714;2023-12-28T10:48:12;52.30;;;28.40;;
77158;SDS011;66129;45.890;13.714;2023-12-28T10:50:39;46.80;;;26.80;;
77158;SDS011;66129;45.890;13.714;2023-12-28T10:53:21;44.25;;;26.50;;
77158;SDS011;66129;45.890;13.714;2023-12-28T10:55:53;84.35;;;35.75;;
77158;SDS011;66129;45.890;13.714;2023-12-28T10:58:24;63.70;;;30.75;;
77158;SDS011;66129;45.890;13.714;2023-12-28T11:01:02;82.00;;;37.05;;
77158;SDS011;66129;45.890;13.714;2023-12-28T11:03:34;61.88;;;34.13;;
77158;SDS011;66129;45.890;13.714;2023-12-28T11:06:04;67.93;;;33.72;;
77158;SDS011;66129;45.890;13.714;2023-12-28T11:08:32;56.17;;;31.90;;
77158;SDS011;66129;45.890;13.714;2023-12-28T11:10:59;59.13;;;34.47;;
77158;SDS011;66129;45.890;13.714;2023-12-28T11:13:29;55.78;;;29.60;;
77158;SDS011;66129;45.890;13.714;2023-12-28T11:15:57;67.13;;;33.33;;
77158;SDS011;66129;45.890;13.714;2023-12-28T11:18:25;68.30;;;33.28;;
77158;SDS011;66129;45.890;13.714;2023-12-28T11:20:53;61.53;;;32.03;;
77158;SDS011;66129;45.890;13.714;2023-12-28T11:23:18;64.80;;;32.65;;
77158;SDS011;66129;45.890;13.714;2023-12-28T11:25:44;56.85;;;31.33;;
77158;SDS011;66129;45.890;13.714;2023-12-28T11:28:11;53.13;;;30.55;;
77158;SDS011;66129;45.890;13.714;2023-12-28T11:30:37;54.28;;;30.75;;
77158;SDS011;66129;45.890;13.714;2023-12-28T11:33:06;45.00;;;27.95;;
77158;SDS011;66129;45.890;13.714;2023-12-28T11:35:38;48.03;;;27.83;;
77158;SDS011;66129;45.890;13.714;2023-12-28T11:38:04;50.92;;;28.00;;
77158;SDS011;66129;45.890;13.714;2023-12-28T11:40:44;43.42;;;25.88;;
77158;SDS011;66129;45.890;13.714;2023-12-28T11:43:19;41.30;;;23.75;;
77158;SDS011;66129;45.890;13.714;2023-12-28T11:45:47;38.35;;;22.88;;
77158;SDS011;66129;45.890;13.714;2023-12-28T11:48:25;35.00;;;22.58;;
77158;SDS011;66129;45.890;13.714;2023-12-28T11:51:00;39.50;;;22.13;;
77158;SDS011;66129;45.890;13.714;2023-12-28T11:53:26;45.95;;;25.38;;
77158;SDS011;66129;45.890;13.714;2023-12-28T11:55:58;39.22;;;22.20;;
77158;SDS011;66129;45.890;13.714;2023-12-28T11:58:26;40.60;;;22.85;;
77158;SDS011;66129;45.890;13.714;2023-12-28T12:00:51;46.67;;;23.77;;
77158;SDS011;66129;45.890;13.714;2023-12-28T12:03:17;47.03;;;24.55;;
77158;SDS011;66129;45.890;13.714;2023-12-28T12:05:42;47.50;;;26.02;;
77158;SDS011;66129;45.890;13.714;2023-12-28T12:08:09;39.00;;;23.00;;
77158;SDS011;66129;45.890;13.714;2023-12-28T12:10:41;38.42;;;22.33;;
77158;SDS011;66129;45.890;13.714;2023-12-28T12:13:07;42.38;;;23.25;;
77158;SDS011;66129;45.890;13.714;2023-12-28T12:15:33;38.25;;;21.42;;
77158;SDS011;66129;45.890;13.714;2023-12-28T12:18:00;36.75;;;21.58;;
77158;SDS011;66129;45.890;13.714;2023-12-28T12:20:26;41.47;;;24.83;;
77158;SDS011;66129;45.890;13.714;2023-12-28T12:22:56;44.00;;;22.52;;
77158;SDS011;66129;45.890;13.714;2023-12-28T12:25:23;37.25;;;22.85;;
77158;SDS011;66129;45.890;13.714;2023-12-28T12:27:48;38.05;;;22.10;;
77158;SDS011;66129;45.890;13.714;2023-12-28T12:30:14;39.80;;;23.17;;
77158;SDS011;66129;45.890;13.714;2023-12-28T12:32:40;41.00;;;22.42;;
77158;SDS011;66129;45.890;13.714;2023-12-28T12:35:07;47.00;;;26.02;;
77158;SDS011;66129;45.890;13.714;2023-12-28T12:37:35;45.75;;;26.90;;
77158;SDS011;66129;45.890;13.714;2023-12-28T12:40:01;43.40;;;25.42;;
77158;SDS011;66129;45.890;13.714;2023-12-28T12:42:27;46.53;;;25.60;;
77158;SDS011;66129;45.890;13.714;2023-12-28T12:44:53;49.10;;;27.00;;
77158;SDS011;66129;45.890;13.714;2023-12-28T12:47:18;43.45;;;25.50;;
77158;SDS011;66129;45.890;13.714;2023-12-28T12:49:44;38.35;;;21.20;;
77158;SDS011;66129;45.890;13.714;2023-12-28T12:52:09;39.67;;;22.40;;
77158;SDS011;66129;45.890;13.714;2023-12-28T12:54:35;36.80;;;21.17;;
77158;SDS011;66129;45.890;13.714;2023-12-28T12:57:00;41.33;;;23.70;;
77158;SDS011;66129;45.890;13.714;2023-12-28T12:59:27;40.40;;;22.25;;
77158;SDS011;66129;45.890;13.714;2023-12-28T13:01:53;37.92;;;20.83;;
77158;SDS011;66129;45.890;13.714;2023-12-28T13:04:18;42.58;;;22.15;;
77158;SDS011;66129;45.890;13.714;2023-12-28T13:06:47;34.45;;;21.58;;
77158;SDS011;66129;45.890;13.714;2023-12-28T13:09:13;42.33;;;22.08;;
77158;SDS011;66129;45.890;13.714;2023-12-28T13:11:38;33.20;;;21.23;;
77158;SDS011;66129;45.890;13.714;2023-12-28T13:14:04;39.45;;;23.00;;
77158;SDS011;66129;45.890;13.714;2023-12-28T13:16:29;59.97;;;31.17;;
77158;SDS011;66129;45.890;13.714;2023-12-28T13:18:55;76.85;;;36.95;;
77158;SDS011;66129;45.890;13.714;2023-12-28T13:21:21;77.10;;;39.55;;
77158;SDS011;66129;45.890;13.714;2023-12-28T13:23:46;57.55;;;32.92;;
77158;SDS011;66129;45.890;13.714;2023-12-28T13:26:12;61.80;;;32.85;;
77158;SDS011;66129;45.890;13.714;2023-12-28T13:28:37;54.80;;;29.23;;
77158;SDS011;66129;45.890;13.714;2023-12-28T13:31:03;52.70;;;29.33;;
77158;SDS011;66129;45.890;13.714;2023-12-28T13:33:28;41.35;;;24.45;;
77158;SDS011;66129;45.890;13.714;2023-12-28T13:35:54;46.10;;;25.88;;
77158;SDS011;66129;45.890;13.714;2023-12-28T13:38:20;42.15;;;26.23;;
77158;SDS011;66129;45.890;13.714;2023-12-28T13:40:46;52.15;;;29.08;;
77158;SDS011;66129;45.890;13.714;2023-12-28T13:43:12;52.58;;;31.00;;
77158;SDS011;66129;45.890;13.714;2023-12-28T13:45:37;49.60;;;28.85;;
77158;SDS011;66129;45.890;13.714;2023-12-28T13:48:03;50.90;;;29.73;;
77158;SDS011;66129;45.890;13.714;2023-12-28T13:50:28;44.80;;;27.38;;
77158;SDS011;66129;45.890;13.714;2023-12-28T13:52:54;53.88;;;27.58;;
77158;SDS011;66129;45.890;13.714;2023-12-28T13:55:19;57.75;;;30.98;;
77158;SDS011;66129;45.890;13.714;2023-12-28T13:57:45;69.40;;;35.75;;
77158;SDS011;66129;45.890;13.714;2023-12-28T14:00:10;64.80;;;36.95;;
77158;SDS011;66129;45.890;13.714;2023-12-28T14:02:36;62.92;;;36.53;;
77158;SDS011;66129;45.890;13.714;2023-12-28T14:05:02;69.90;;;38.70;;
77158;SDS011;66129;45.890;13.714;2023-12-28T14:07:28;63.28;;;34.75;;
77158;SDS011;66129;45.890;13.714;2023-12-28T14:09:53;67.78;;;34.88;;
77158;SDS011;66129;45.890;13.714;2023-12-28T14:12:19;63.70;;;34.25;;